Time;durP1;ratioP1;P1;durP2;ratioP2;P2;SDS_P1;SDS_P2;PMS_P1;PMS_P2;Temp;Humidity;BMP_temperature;BMP_pressure;BME280_temperature;BME280_humidity;BME280_pressure;Samples;Min_cycle;Max_cycle;Signal;HPM_P1;HPM_P2
2022/05/04 00:01:32;;;;;;;6.50;5.90;;;10.10;99.90;;;;;;4138190;28;20054;-75
2022/05/04 00:03:39;;;;;;;5.93;5.43;;;10.00;99.90;;;;;;4137351;28;20059;-75
2022/05/04 00:05:40;;;;;;;8.88;5.70;;;9.90;99.90;;;;;;4136893;28;20084;-75
2022/05/04 00:07:42;;;;;;;7.00;6.22;;;9.90;99.90;;;;;;4137388;28;20822;-75
2022/05/04 00:09:44;;;;;;;8.15;7.32;;;9.80;99.90;;;;;;4139420;28;20101;-75
2022/05/04 00:11:45;;;;;;;9.95;6.95;;;9.80;99.90;;;;;;4137894;28;20801;-74
2022/05/04 00:13:47;;;;;;;9.02;6.68;;;9.80;99.90;;;;;;4139092;28;20763;-74
2022/05/04 00:15:49;;;;;;;7.63;7.03;;;9.80;99.90;;;;;;4137904;28;20102;-74
2022/05/04 00:17:51;;;;;;;6.35;5.93;;;9.80;99.90;;;;;;4143243;28;20098;-75
2022/05/04 00:19:52;;;;;;;8.02;7.30;;;9.80;99.90;;;;;;4142184;28;20062;-75
2022/05/04 00:21:55;;;;;;;6.70;6.20;;;9.80;99.90;;;;;;4137325;28;20090;-75
2022/05/04 00:23:56;;;;;;;7.22;6.55;;;9.80;99.90;;;;;;4138502;28;20181;-75
2022/05/04 00:25:58;;;;;;;7.68;6.20;;;9.80;99.90;;;;;;4145393;28;20153;-75
2022/05/04 00:28:02;;;;;;;6.22;5.72;;;9.80;99.90;;;;;;4140145;28;20062;-75
2022/05/04 00:30:05;;;;;;;6.35;5.85;;;9.80;99.90;;;;;;4142985;28;20058;-74
2022/05/04 00:32:07;;;;;;;5.82;5.03;;;9.80;99.90;;;;;;4141247;28;20192;-74
2022/05/04 00:34:09;;;;;;;5.50;5.10;;;9.80;99.90;;;;;;4141180;28;20059;-75
2022/05/04 00:36:11;;;;;;;6.40;4.43;;;9.90;99.90;;;;;;4143868;28;20988;-75
2022/05/04 00:38:12;;;;;;;5.07;4.43;;;9.90;99.90;;;;;;4143171;28;20968;-74
2022/05/04 00:40:14;;;;;;;5.63;5.13;;;9.90;99.90;;;;;;4161190;22;20635;-75
2022/05/04 00:42:19;;;;;;;4.75;4.32;;;9.90;99.90;;;;;;4174604;28;20057;-75
2022/05/04 00:44:20;;;;;;;4.88;4.47;;;9.90;99.90;;;;;;4176000;28;20957;-75
2022/05/04 00:46:23;;;;;;;5.25;4.78;;;10.00;99.90;;;;;;4173465;28;20067;-75
2022/05/04 00:48:25;;;;;;;4.72;4.38;;;10.00;99.90;;;;;;4175834;28;20063;-75
2022/05/04 00:50:27;;;;;;;5.13;4.80;;;10.00;99.90;;;;;;4178581;28;20116;-75
2022/05/04 00:52:29;;;;;;;4.75;4.43;;;9.90;99.90;;;;;;4172722;28;20077;-75
2022/05/04 00:54:32;;;;;;;5.03;4.68;;;9.90;99.90;;;;;;4174555;28;20053;-75
2022/05/04 00:56:33;;;;;;;6.40;4.50;;;9.90;99.90;;;;;;4176254;28;20761;-75
2022/05/04 00:58:56;;;;;;;4.80;4.40;;;9.90;99.90;;;;;;4171499;28;20093;-75
2022/05/04 01:01:01;;;;;;;6.10;5.03;;;9.90;99.90;;;;;;4171871;28;20113;-75
2022/05/04 01:03:03;;;;;;;5.32;4.68;;;9.90;99.90;;;;;;4170315;28;20756;-75
2022/05/04 01:05:09;;;;;;;5.70;5.20;;;9.80;99.90;;;;;;4170357;28;20093;-75
2022/05/04 01:07:11;;;;;;;5.63;5.10;;;9.60;99.90;;;;;;4169376;28;20128;-75
2022/05/04 01:09:12;;;;;;;5.82;5.32;;;9.60;99.90;;;;;;4171627;28;20884;-75
2022/05/04 01:11:15;;;;;;;6.10;5.60;;;9.60;99.90;;;;;;4175446;28;20064;-75
2022/05/04 01:13:21;;;;;;;5.95;5.40;;;9.60;99.90;;;;;;4169337;28;20624;-75
2022/05/04 01:15:23;;;;;;;7.20;5.28;;;9.50;99.90;;;;;;4168364;28;20045;-75
2022/05/04 01:17:27;;;;;;;5.25;4.85;;;9.50;99.90;;;;;;4170042;28;20058;-75
2022/05/04 01:19:28;;;;;;;6.32;5.65;;;9.50;99.90;;;;;;4167014;28;20685;-75
2022/05/04 01:21:30;;;;;;;5.97;5.30;;;9.60;99.90;;;;;;4176355;28;20849;-75
2022/05/04 01:23:32;;;;;;;6.00;5.50;;;9.60;99.90;;;;;;4168973;28;20057;-75
2022/05/04 01:25:34;;;;;;;7.45;6.32;;;9.70;99.90;;;;;;4176344;28;20164;-75
2022/05/04 01:27:36;;;;;;;5.70;5.20;;;9.70;99.90;;;;;;4171824;28;20963;-74
2022/05/04 01:29:38;;;;;;;5.22;4.72;;;9.70;99.90;;;;;;4169104;28;20093;-75
2022/05/04 01:31:40;;;;;;;6.10;4.78;;;9.80;99.90;;;;;;4174447;28;20187;-75
2022/05/04 01:33:42;;;;;;;7.72;5.13;;;9.80;99.90;;;;;;4179767;28;20093;-75
2022/05/04 01:35:44;;;;;;;6.20;4.97;;;9.70;99.90;;;;;;4179516;28;20902;-75
2022/05/04 01:37:45;;;;;;;5.97;5.55;;;9.70;99.90;;;;;;4170285;28;21163;-74
2022/05/04 01:39:47;;;;;;;9.77;5.55;;;9.60;99.90;;;;;;4175008;28;20891;-74
2022/05/04 01:44:10;;;;;;;5.97;5.32;;;9.70;99.90;;;;;;4174566;28;20872;-74
2022/05/04 01:46:12;;;;;;;5.80;5.30;;;9.60;99.90;;;;;;4175070;28;20060;-74
2022/05/04 01:48:14;;;;;;;5.65;5.22;;;9.60;99.90;;;;;;4175953;28;20060;-74
2022/05/04 01:50:17;;;;;;;6.43;5.88;;;9.60;99.90;;;;;;4173277;28;20062;-74
2022/05/04 01:52:18;;;;;;;6.40;5.63;;;9.60;99.90;;;;;;4173614;28;20796;-74
2022/05/04 01:54:20;;;;;;;6.03;5.50;;;9.70;99.90;;;;;;4175644;28;20054;-74
2022/05/04 01:56:22;;;;;;;6.30;5.72;;;9.80;99.90;;;;;;4173674;28;20156;-74
2022/05/04 01:58:24;;;;;;;6.72;6.05;;;9.80;99.90;;;;;;4174645;28;20057;-74
2022/05/04 02:00:26;;;;;;;5.28;4.95;;;9.80;99.90;;;;;;4175399;28;20884;-74
2022/05/04 02:02:28;;;;;;;6.75;6.15;;;9.80;99.90;;;;;;4172285;28;20280;-74
2022/05/04 02:04:29;;;;;;;5.70;5.30;;;9.80;99.90;;;;;;4172348;28;20054;-75
2022/05/04 02:06:32;;;;;;;6.72;6.22;;;9.70;99.90;;;;;;4175620;28;20781;-74
2022/05/04 02:08:35;;;;;;;9.68;8.68;;;9.80;99.90;;;;;;4175092;28;20057;-75
2022/05/04 02:10:36;;;;;;;7.93;7.15;;;9.80;99.90;;;;;;4177694;28;20058;-74
2022/05/04 02:12:38;;;;;;;7.47;6.78;;;9.90;99.90;;;;;;4171952;28;20060;-74
2022/05/04 02:14:40;;;;;;;8.40;5.97;;;10.00;99.90;;;;;;4177302;28;20175;-74
2022/05/04 02:16:41;;;;;;;6.50;5.38;;;10.00;99.90;;;;;;4171353;28;20053;-74
2022/05/04 02:18:43;;;;;;;6.10;5.32;;;10.00;99.90;;;;;;4175971;28;20057;-74
2022/05/04 02:20:45;;;;;;;14.60;10.45;;;10.10;99.90;;;;;;4177913;28;20087;-74
2022/05/04 02:22:47;;;;;;;9.18;7.70;;;10.10;99.90;;;;;;4168546;28;20060;-74
2022/05/04 02:24:48;;;;;;;7.32;6.65;;;10.10;99.90;;;;;;4173112;28;20104;-74
2022/05/04 02:26:50;;;;;;;7.40;6.35;;;10.10;99.90;;;;;;4169796;28;20061;-75
2022/05/04 02:28:52;;;;;;;9.73;7.68;;;10.10;99.90;;;;;;4169590;28;20065;-75
2022/05/04 02:30:53;;;;;;;41.20;23.58;;;10.10;99.90;;;;;;4169009;28;20053;-75
2022/05/04 02:32:55;;;;;;;29.48;17.67;;;10.10;99.90;;;;;;4168482;28;20168;-75
2022/05/04 02:39:37;;;;;;;23.00;15.48;;;10.20;99.90;;;;;;4166231;28;20088;-75
2022/05/04 02:41:39;;;;;;;33.40;21.30;;;10.10;99.90;;;;;;4166161;28;20868;-75
2022/05/04 02:43:41;;;;;;;38.20;22.27;;;10.10;99.90;;;;;;4169368;28;20053;-75
2022/05/04 02:45:42;;;;;;;33.67;21.33;;;10.10;99.90;;;;;;4171544;28;20054;-75
2022/05/04 02:47:44;;;;;;;28.67;18.13;;;10.10;99.90;;;;;;4169072;28;20062;-75
2022/05/04 02:49:48;;;;;;;16.52;12.52;;;10.10;99.90;;;;;;4175346;28;20057;-75
2022/05/04 02:51:51;;;;;;;20.90;13.00;;;10.00;99.90;;;;;;4168747;28;20181;-75
2022/05/04 02:53:53;;;;;;;25.52;16.83;;;10.00;99.90;;;;;;4170736;28;20081;-75
2022/05/04 02:55:55;;;;;;;18.60;13.75;;;10.00;99.90;;;;;;4175187;28;20077;-75
2022/05/04 02:57:57;;;;;;;19.55;13.93;;;10.00;99.90;;;;;;4172383;28;20068;-75
2022/05/04 02:59:58;;;;;;;19.95;12.80;;;10.00;99.90;;;;;;4172756;28;20092;-75
2022/05/04 03:04:21;;;;;;;17.52;14.05;;;10.10;99.90;;;;;;4174618;28;20103;-77
2022/05/04 03:06:22;;;;;;;23.15;16.77;;;10.10;99.90;;;;;;4172760;28;20064;-75
2022/05/04 03:08:24;;;;;;;23.88;18.58;;;10.20;99.90;;;;;;4173346;28;20876;-75
2022/05/04 03:10:26;;;;;;;21.90;18.05;;;10.20;99.90;;;;;;4171795;28;20069;-75
2022/05/04 03:12:27;;;;;;;29.00;21.27;;;10.20;99.90;;;;;;4173749;28;20682;-75
2022/05/04 03:14:29;;;;;;;12.25;11.00;;;10.20;99.90;;;;;;4174557;28;20057;-75
2022/05/04 03:16:31;;;;;;;11.57;7.40;;;10.20;99.90;;;;;;4175130;28;20776;-75
2022/05/04 03:18:32;;;;;;;8.00;7.20;;;10.20;99.90;;;;;;4171939;28;20781;-75
2022/05/04 03:20:37;;;;;;;11.45;7.88;;;10.10;99.90;;;;;;4171550;28;20132;-75
2022/05/04 03:22:39;;;;;;;10.07;7.53;;;10.10;99.90;;;;;;4172906;28;20059;-75
2022/05/04 03:24:41;;;;;;;12.98;7.00;;;10.10;99.90;;;;;;4173343;28;20061;-75
2022/05/04 03:26:43;;;;;;;6.93;6.32;;;10.10;99.90;;;;;;4178917;28;20096;-75
2022/05/04 03:28:45;;;;;;;5.85;5.30;;;10.20;99.90;;;;;;4176255;28;20057;-75
2022/05/04 03:30:47;;;;;;;7.28;6.53;;;10.20;99.90;;;;;;4170294;28;20057;-75
2022/05/04 03:32:48;;;;;;;7.65;6.85;;;10.30;99.90;;;;;;4169809;28;20049;-75
2022/05/04 03:34:50;;;;;;;7.50;6.75;;;10.30;99.90;;;;;;4173613;28;20108;-75
2022/05/04 03:36:52;;;;;;;7.25;6.70;;;10.20;99.90;;;;;;4177689;28;20217;-75
2022/05/04 03:38:54;;;;;;;7.18;6.32;;;10.30;99.90;;;;;;4169514;28;20065;-75
2022/05/04 03:40:56;;;;;;;7.22;6.55;;;10.30;99.90;;;;;;4175563;28;20168;-74
2022/05/04 03:42:57;;;;;;;7.22;6.53;;;10.40;99.90;;;;;;4169523;28;20057;-75
2022/05/04 03:44:59;;;;;;;8.35;6.13;;;10.40;99.90;;;;;;4174350;28;20691;-75
2022/05/04 03:47:01;;;;;;;6.78;6.18;;;10.50;99.90;;;;;;4165681;28;20068;-75
2022/05/04 03:49:03;;;;;;;7.15;5.13;;;10.50;99.90;;;;;;4178573;28;20065;-75
2022/05/04 03:51:05;;;;;;;5.70;5.22;;;10.50;99.90;;;;;;4167509;28;20100;-75
2022/05/04 03:53:07;;;;;;;8.07;4.78;;;10.50;99.90;;;;;;4164395;28;20057;-75
2022/05/04 03:55:08;;;;;;;5.32;4.93;;;10.60;99.90;;;;;;4167795;28;20823;-75
2022/05/04 03:57:10;;;;;;;5.65;3.97;;;10.60;99.90;;;;;;4166346;28;20096;-75
2022/05/04 03:59:12;;;;;;;5.20;4.80;;;10.60;99.90;;;;;;4166229;28;20054;-75
2022/05/04 04:01:14;;;;;;;4.15;3.80;;;10.70;99.90;;;;;;4178369;28;20865;-75
2022/05/04 04:03:15;;;;;;;4.18;3.85;;;10.80;99.90;;;;;;4169826;28;20054;-75
2022/05/04 04:05:17;;;;;;;3.95;3.40;;;10.80;99.90;;;;;;4167628;28;20065;-75
2022/05/04 04:07:19;;;;;;;4.45;4.05;;;10.90;99.90;;;;;;4167572;28;20065;-75
2022/05/04 04:09:20;;;;;;;4.63;4.20;;;11.00;99.90;;;;;;4171792;28;20063;-75
2022/05/04 04:11:22;;;;;;;4.50;3.92;;;11.00;99.90;;;;;;4172326;28;20089;-75
2022/05/04 04:13:24;;;;;;;4.20;3.83;;;11.10;99.90;;;;;;4173367;28;20061;-75
2022/05/04 04:15:26;;;;;;;4.10;3.50;;;11.10;99.90;;;;;;4171466;28;20132;-75
2022/05/04 04:17:29;;;;;;;5.32;4.22;;;11.10;99.90;;;;;;4171846;28;20064;-75
2022/05/04 04:19:31;;;;;;;4.05;3.75;;;11.10;99.90;;;;;;4173096;28;20061;-75
2022/05/04 04:21:52;;;;;;;4.30;3.97;;;11.20;99.90;;;;;;4173210;28;20058;-75
2022/05/04 04:23:54;;;;;;;4.30;3.90;;;11.20;99.90;;;;;;4174909;28;20914;-75
2022/05/04 04:25:57;;;;;;;4.07;3.72;;;11.20;99.90;;;;;;4172350;28;20104;-76
2022/05/04 04:27:58;;;;;;;4.15;3.55;;;11.20;99.90;;;;;;4174429;28;20108;-76
2022/05/04 04:30:00;;;;;;;3.97;3.67;;;11.20;99.90;;;;;;4176235;28;20683;-75
2022/05/04 04:32:02;;;;;;;4.72;4.32;;;11.20;99.90;;;;;;4172341;28;20076;-76
2022/05/04 04:34:04;;;;;;;4.60;4.20;;;11.20;99.90;;;;;;4174626;28;20080;-75
2022/05/04 04:36:13;;;;;;;6.00;3.60;;;11.20;99.90;;;;;;4173413;28;20081;-76
2022/05/04 04:38:14;;;;;;;4.88;4.38;;;11.20;99.90;;;;;;4172691;28;21002;-75
2022/05/04 04:40:16;;;;;;;5.32;4.13;;;11.20;99.90;;;;;;4171195;28;20149;-76
2022/05/04 04:42:18;;;;;;;4.30;4.00;;;11.30;99.90;;;;;;4173395;28;20057;-76
2022/05/04 04:44:20;;;;;;;5.38;4.22;;;11.30;99.90;;;;;;4168774;28;20050;-76
2022/05/04 04:46:22;;;;;;;4.50;4.20;;;11.30;99.90;;;;;;4174160;28;20136;-76
2022/05/04 04:48:23;;;;;;;6.13;4.45;;;11.30;99.90;;;;;;4175365;28;20050;-76
2022/05/04 04:50:25;;;;;;;5.68;5.05;;;11.30;99.90;;;;;;4174498;28;20058;-76
2022/05/04 04:52:27;;;;;;;5.22;4.78;;;11.30;99.90;;;;;;4173443;28;20054;-76
2022/05/04 04:54:28;;;;;;;4.63;4.10;;;11.40;99.90;;;;;;4170854;28;20627;-75
2022/05/04 04:56:30;;;;;;;6.18;4.72;;;11.30;99.90;;;;;;4179527;28;20060;-76
2022/05/04 04:58:32;;;;;;;5.75;4.53;;;11.40;99.90;;;;;;4178082;28;20079;-75
2022/05/04 05:00:34;;;;;;;4.97;4.55;;;11.40;99.90;;;;;;4181434;28;20053;-77
2022/05/04 05:02:36;;;;;;;4.80;4.40;;;11.30;99.90;;;;;;4172101;28;20185;-76
2022/05/04 05:04:38;;;;;;;5.82;4.72;;;11.30;99.90;;;;;;4172046;28;20056;-76
2022/05/04 05:06:40;;;;;;;6.75;4.47;;;11.40;99.90;;;;;;4174453;28;20923;-76
2022/05/04 05:08:41;;;;;;;5.60;4.80;;;11.40;99.90;;;;;;4172519;28;20880;-75
2022/05/04 05:10:43;;;;;;;6.63;4.00;;;11.40;99.90;;;;;;4173366;28;20065;-76
2022/05/04 05:12:45;;;;;;;12.10;4.70;;;11.40;99.90;;;;;;4174756;28;20152;-74
2022/05/04 05:17:13;;;;;;;4.97;4.57;;;11.60;99.90;;;;;;4176793;28;20065;-74
2022/05/04 05:19:15;;;;;;;4.93;4.53;;;11.60;99.90;;;;;;4174266;28;20058;-74
2022/05/04 05:21:17;;;;;;;7.82;4.63;;;11.70;99.90;;;;;;4176616;28;20061;-76
2022/05/04 05:23:20;;;;;;;4.63;4.20;;;11.60;99.90;;;;;;4179662;28;20057;-73
2022/05/04 05:25:21;;;;;;;5.38;4.85;;;11.60;99.90;;;;;;4177926;28;20061;-75
2022/05/04 05:27:23;;;;;;;7.82;4.90;;;11.50;99.90;;;;;;4174904;28;20061;-74
2022/05/04 05:29:25;;;;;;;4.82;3.80;;;11.40;99.90;;;;;;4179353;28;20057;-74
2022/05/04 05:31:26;;;;;;;7.03;4.57;;;11.40;99.90;;;;;;4178525;28;20887;-75
2022/05/04 05:33:28;;;;;;;5.32;4.30;;;11.40;99.90;;;;;;4177558;28;20057;-74
2022/05/04 05:35:30;;;;;;;5.85;4.35;;;11.50;99.90;;;;;;4180932;28;20137;-74
2022/05/04 05:37:32;;;;;;;5.45;4.95;;;11.50;99.90;;;;;;4179399;28;20060;-74
2022/05/04 05:39:34;;;;;;;5.78;4.82;;;11.60;99.90;;;;;;4178945;28;20065;-74
2022/05/04 05:41:36;;;;;;;5.65;4.40;;;11.70;99.90;;;;;;4178929;28;20096;-74
2022/05/04 05:43:37;;;;;;;5.18;4.03;;;11.80;99.90;;;;;;4175241;28;21136;-74
2022/05/04 05:45:39;;;;;;;4.43;3.92;;;11.80;99.90;;;;;;4180729;28;20058;-74
2022/05/04 05:47:41;;;;;;;4.68;4.10;;;11.90;99.90;;;;;;4180709;28;20907;-72
2022/05/04 05:49:43;;;;;;;5.95;5.45;;;12.00;99.90;;;;;;4180170;28;20865;-73
2022/05/04 05:51:44;;;;;;;4.68;4.13;;;12.00;99.90;;;;;;4178449;28;20061;-71
2022/05/04 05:53:46;;;;;;;4.95;4.50;;;12.10;99.90;;;;;;4180416;28;20661;-72
2022/05/04 05:55:48;;;;;;;4.80;4.35;;;12.20;99.90;;;;;;4179383;28;20144;-71
2022/05/04 05:57:50;;;;;;;4.78;4.25;;;12.20;99.90;;;;;;4179357;28;20061;-70
2022/05/04 05:59:52;;;;;;;5.28;4.32;;;12.20;99.90;;;;;;4178623;28;20065;-71
2022/05/04 06:01:55;;;;;;;5.03;4.60;;;12.30;99.90;;;;;;4179532;28;20080;-71
2022/05/04 06:03:57;;;;;;;5.70;5.00;;;12.40;99.90;;;;;;4180052;28;20061;-71
2022/05/04 06:05:59;;;;;;;5.25;4.75;;;12.40;99.90;;;;;;4179098;28;20857;-71
2022/05/04 06:08:01;;;;;;;4.78;4.28;;;12.40;99.90;;;;;;4177541;28;20062;-71
2022/05/04 06:10:04;;;;;;;4.80;4.30;;;12.50;99.90;;;;;;4176681;28;20124;-71
2022/05/04 06:12:06;;;;;;;6.15;4.43;;;12.40;99.90;;;;;;4177334;28;20065;-71
2022/05/04 06:14:08;;;;;;;4.30;3.90;;;12.40;99.90;;;;;;4179152;28;20085;-71
2022/05/04 06:16:10;;;;;;;7.03;4.25;;;12.40;99.90;;;;;;4177387;28;20057;-71
2022/05/04 06:18:12;;;;;;;4.20;3.90;;;12.30;99.90;;;;;;4178093;28;20057;-71
2022/05/04 06:20:13;;;;;;;7.47;4.95;;;12.30;99.90;;;;;;4175519;28;20057;-71
2022/05/04 06:22:15;;;;;;;4.15;3.85;;;12.40;99.90;;;;;;4177024;28;20658;-71
2022/05/04 06:24:17;;;;;;;6.85;5.40;;;12.30;99.90;;;;;;4172839;28;20057;-71
2022/05/04 06:26:20;;;;;;;4.60;4.30;;;12.40;99.90;;;;;;4173150;28;20100;-71
2022/05/04 06:28:22;;;;;;;6.88;4.70;;;12.40;99.90;;;;;;4173700;28;20061;-71
2022/05/04 06:35:05;;;;;;;6.82;5.00;;;12.50;99.90;;;;;;4177681;28;20061;-71
2022/05/04 06:37:07;;;;;;;4.57;4.28;;;12.50;99.90;;;;;;4178065;28;20057;-71
2022/05/04 06:39:10;;;;;;;6.13;4.28;;;12.50;99.90;;;;;;4176689;28;20621;-72
2022/05/04 06:41:12;;;;;;;6.18;4.05;;;12.50;99.90;;;;;;4215241;22;20087;-72
2022/05/04 06:43:14;;;;;;;4.28;3.80;;;12.50;99.90;;;;;;4180591;28;20053;-72
2022/05/04 06:45:15;;;;;;;7.65;4.18;;;12.50;99.90;;;;;;4180430;28;20062;-72
2022/05/04 06:47:17;;;;;;;4.78;4.38;;;12.60;99.90;;;;;;4180367;28;20057;-73
2022/05/04 06:49:19;;;;;;;4.60;4.20;;;12.60;99.90;;;;;;4178337;28;20152;-72
2022/05/04 06:51:21;;;;;;;4.65;4.15;;;12.60;99.90;;;;;;4168452;28;20053;-72
2022/05/04 06:53:23;;;;;;;4.63;4.15;;;12.60;99.90;;;;;;4170645;28;20057;-72
2022/05/04 06:55:24;;;;;;;5.90;4.68;;;12.70;99.90;;;;;;4169200;28;20084;-72
2022/05/04 06:57:26;;;;;;;6.47;4.72;;;12.70;99.90;;;;;;4168503;28;20172;-72
2022/05/04 06:59:28;;;;;;;5.82;5.32;;;12.70;99.90;;;;;;4168622;28;20176;-72
2022/05/04 07:01:30;;;;;;;6.05;5.55;;;12.70;99.90;;;;;;4169781;28;20054;-72
2022/05/04 07:03:32;;;;;;;6.00;5.40;;;12.60;99.90;;;;;;4168260;28;20120;-72
2022/05/04 07:05:34;;;;;;;5.53;5.03;;;12.60;99.90;;;;;;4168255;28;20054;-72
2022/05/04 07:07:36;;;;;;;8.25;5.22;;;12.50;99.90;;;;;;4169241;28;20065;-72
2022/05/04 07:09:38;;;;;;;5.43;4.93;;;12.60;99.90;;;;;;4169107;28;20057;-72
2022/05/04 07:11:40;;;;;;;5.65;5.15;;;12.60;99.90;;;;;;4169191;28;20062;-72
2022/05/04 07:13:43;;;;;;;5.00;4.60;;;12.60;99.90;;;;;;4168103;28;20866;-72
2022/05/04 07:15:44;;;;;;;6.13;5.63;;;12.70;99.90;;;;;;4170582;28;20057;-72
2022/05/04 07:17:46;;;;;;;6.25;5.70;;;12.80;99.90;;;;;;4169917;28;20148;-72
2022/05/04 07:19:48;;;;;;;6.93;4.78;;;12.90;99.90;;;;;;4168710;28;20169;-72
2022/05/04 07:21:50;;;;;;;4.97;4.45;;;13.10;99.90;;;;;;4170150;28;20058;-72
2022/05/04 07:23:52;;;;;;;5.15;4.65;;;13.20;99.90;;;;;;4169940;28;20774;-72
2022/05/04 07:25:54;;;;;;;5.20;4.78;;;13.20;99.90;;;;;;4171909;28;20058;-72
2022/05/04 07:27:56;;;;;;;5.22;4.28;;;13.30;99.90;;;;;;4168609;28;20879;-72
2022/05/04 07:29:57;;;;;;;4.70;4.32;;;13.30;99.90;;;;;;4170710;28;20061;-72
2022/05/04 07:31:59;;;;;;;5.55;4.45;;;13.10;99.90;;;;;;4169068;28;20065;-71
2022/05/04 07:34:01;;;;;;;9.05;4.45;;;13.10;99.90;;;;;;4170131;28;20045;-72
2022/05/04 07:36:03;;;;;;;5.68;5.28;;;13.00;99.90;;;;;;4167433;28;20235;-72
2022/05/04 07:38:05;;;;;;;6.05;4.75;;;13.00;99.90;;;;;;4174247;28;20972;-72
2022/05/04 07:42:27;;;;;;;5.32;4.82;;;13.00;99.90;;;;;;4167488;28;20156;-72
2022/05/04 07:44:29;;;;;;;7.68;5.55;;;12.90;99.90;;;;;;4169958;28;20058;-72
2022/05/04 07:46:31;;;;;;;6.20;5.30;;;12.90;99.90;;;;;;4171032;28;20057;-71
2022/05/04 07:48:32;;;;;;;4.97;4.53;;;12.90;99.90;;;;;;4170469;28;20807;-72
2022/05/04 07:50:34;;;;;;;4.82;4.43;;;12.90;99.90;;;;;;4169851;28;20058;-73
2022/05/04 07:52:36;;;;;;;7.70;4.78;;;12.90;99.90;;;;;;4168142;28;20054;-72
2022/05/04 07:54:37;;;;;;;8.20;4.57;;;12.80;99.90;;;;;;4173103;28;20956;-72
2022/05/04 07:56:40;;;;;;;5.13;4.72;;;12.80;99.90;;;;;;4170472;28;20053;-72
2022/05/04 07:58:42;;;;;;;7.90;5.50;;;12.80;99.90;;;;;;4167253;28;20895;-72
2022/05/04 08:05:25;;;;;;;5.93;5.38;;;12.70;99.90;;;;;;4168346;28;20057;-72
2022/05/04 08:07:26;;;;;;;5.78;5.20;;;12.60;99.90;;;;;;4169467;28;20061;-73
2022/05/04 08:09:28;;;;;;;5.68;5.18;;;12.60;99.90;;;;;;4168545;28;20058;-73
2022/05/04 08:11:30;;;;;;;5.93;5.43;;;12.70;99.90;;;;;;4167349;28;20770;-73
2022/05/04 08:13:32;;;;;;;8.85;5.25;;;12.70;99.90;;;;;;4167000;28;20180;-74
2022/05/04 08:15:35;;;;;;;6.95;5.40;;;12.80;99.90;;;;;;4166536;28;20058;-74
2022/05/04 08:17:37;;;;;;;7.43;5.18;;;12.80;99.90;;;;;;4167936;28;20077;-74
2022/05/04 08:19:38;;;;;;;8.45;5.65;;;12.80;99.90;;;;;;4169070;28;20060;-74
2022/05/04 08:21:40;;;;;;;6.93;5.70;;;12.80;99.90;;;;;;4168031;28;20062;-74
2022/05/04 08:23:41;;;;;;;6.80;6.13;;;12.90;99.90;;;;;;4170326;28;21870;-74
2022/05/04 08:25:45;;;;;;;5.95;5.20;;;13.00;99.90;;;;;;4173621;28;20057;-74
2022/05/04 08:27:46;;;;;;;6.50;5.82;;;13.00;99.90;;;;;;4169785;28;20069;-74
2022/05/04 08:29:48;;;;;;;6.88;6.07;;;13.00;99.90;;;;;;4171194;28;20065;-73
2022/05/04 08:31:50;;;;;;;8.80;6.25;;;13.00;99.90;;;;;;4170245;28;20156;-74
2022/05/04 08:33:52;;;;;;;13.45;6.68;;;12.90;99.90;;;;;;4173181;28;20161;-74
2022/05/04 08:35:54;;;;;;;9.27;6.63;;;12.80;99.90;;;;;;4172075;28;20152;-74
2022/05/04 08:37:56;;;;;;;7.75;6.95;;;12.80;99.90;;;;;;4168820;28;20053;-73
2022/05/04 08:39:57;;;;;;;9.50;7.20;;;12.80;99.90;;;;;;4172492;28;20093;-73
2022/05/04 08:42:00;;;;;;;10.25;7.78;;;12.80;99.90;;;;;;4168414;28;20057;-74
2022/05/04 08:44:04;;;;;;;10.75;8.70;;;12.60;99.90;;;;;;4173219;28;20058;-74
2022/05/04 08:46:05;;;;;;;9.00;7.85;;;12.50;99.90;;;;;;4171076;28;20065;-73
2022/05/04 08:48:08;;;;;;;9.55;8.10;;;12.40;99.90;;;;;;4167501;28;20057;-74
2022/05/04 08:50:13;;;;;;;10.68;8.80;;;12.40;99.90;;;;;;4170334;28;20868;-73
2022/05/04 08:52:15;;;;;;;12.52;9.05;;;12.40;99.90;;;;;;4171427;28;20061;-74
2022/05/04 08:54:17;;;;;;;7.55;6.93;;;12.50;99.90;;;;;;4173343;28;20068;-73
2022/05/04 08:56:19;;;;;;;9.73;7.60;;;12.50;99.90;;;;;;4174750;28;20054;-74
2022/05/04 08:58:23;;;;;;;8.55;7.72;;;12.60;99.90;;;;;;4174989;28;20046;-73
2022/05/04 09:00:24;;;;;;;11.23;8.45;;;12.70;99.90;;;;;;4175293;28;20054;-73
2022/05/04 09:02:29;;;;;;;8.70;7.43;;;12.80;99.90;;;;;;4168980;28;20057;-73
2022/05/04 09:04:31;;;;;;;8.02;7.32;;;12.70;99.90;;;;;;4169696;28;20164;-73
2022/05/04 09:06:41;;;;;;;8.60;7.22;;;12.80;99.90;;;;;;4172728;28;20079;-73
2022/05/04 09:09:04;;;;;;;9.25;6.93;;;12.80;99.90;;;;;;4171243;28;20060;-73
2022/05/04 09:11:16;;;;;;;7.75;6.78;;;12.80;99.90;;;;;;4173003;28;20049;-73
2022/05/04 09:13:18;;;;;;;8.60;7.25;;;12.90;99.90;;;;;;4171724;28;20124;-73
2022/05/04 09:15:29;;;;;;;6.88;6.10;;;13.10;99.90;;;;;;4174334;28;20108;-73
2022/05/04 09:17:30;;;;;;;5.90;5.40;;;13.20;99.90;;;;;;4172709;28;20060;-73
2022/05/04 09:19:32;;;;;;;9.15;6.18;;;13.20;99.90;;;;;;4168351;28;20058;-73
2022/05/04 09:21:35;;;;;;;6.78;6.10;;;13.30;99.90;;;;;;4169195;28;20053;-73
2022/05/04 09:23:36;;;;;;;6.80;6.05;;;13.50;99.90;;;;;;4168743;28;20057;-73
2022/05/04 09:25:38;;;;;;;7.45;6.75;;;13.60;99.90;;;;;;4165447;28;20058;-73
2022/05/04 09:27:40;;;;;;;7.68;6.85;;;13.80;99.90;;;;;;4165302;28;20109;-73
2022/05/04 09:29:42;;;;;;;7.25;5.38;;;14.00;99.90;;;;;;4165301;28;20062;-73
2022/05/04 09:31:47;;;;;;;10.27;6.20;;;14.10;99.90;;;;;;4164195;28;20097;-73
2022/05/04 09:33:57;;;;;;;8.18;5.90;;;14.20;99.90;;;;;;4165352;28;20081;-74
2022/05/04 09:36:00;;;;;;;7.57;6.80;;;14.20;99.90;;;;;;4165384;28;20058;-73
2022/05/04 09:45:21;;;;;;;4.30;3.97;;;15.10;99.90;;;;;;4165465;28;20085;-73
2022/05/04 09:47:23;;;;;;;6.57;4.15;;;15.30;99.90;;;;;;4163299;28;20066;-73
2022/05/04 09:49:30;;;;;;;4.47;3.92;;;15.60;99.90;;;;;;4165055;28;20065;-73
2022/05/04 09:51:32;;;;;;;4.30;4.00;;;15.80;99.90;;;;;;4163807;28;20072;-72
2022/05/04 09:53:38;;;;;;;5.97;4.10;;;15.90;99.90;;;;;;4165357;28;20088;-73
2022/05/04 09:55:41;;;;;;;5.82;3.80;;;16.10;99.90;;;;;;4165333;28;20161;-73
2022/05/04 09:57:44;;;;;;;4.43;3.90;;;16.40;99.90;;;;;;4165283;28;20161;-72
2022/05/04 09:59:47;;;;;;;5.35;4.13;;;16.50;99.90;;;;;;4164789;28;20054;-72
2022/05/04 10:01:51;;;;;;;4.20;3.08;;;16.70;99.90;;;;;;4165299;28;20789;-72
2022/05/04 10:03:52;;;;;;;2.92;2.60;;;16.80;99.90;;;;;;4165157;28;20054;-72
2022/05/04 10:05:55;;;;;;;6.80;3.33;;;16.90;96.90;;;;;;4161941;28;20152;-73
2022/05/04 10:07:56;;;;;;;3.40;3.10;;;16.80;94.80;;;;;;4165410;28;20062;-72
2022/05/04 10:09:58;;;;;;;6.18;3.00;;;16.60;96.10;;;;;;4164994;28;20062;-72
2022/05/04 10:12:00;;;;;;;6.70;4.13;;;16.40;94.10;;;;;;4164743;28;20164;-72
2022/05/04 10:14:12;;;;;;;4.10;2.97;;;16.30;95.10;;;;;;4164917;28;20093;-72
2022/05/04 10:16:15;;;;;;;3.83;3.35;;;16.30;94.80;;;;;;4162868;28;20050;-71
2022/05/04 10:18:24;;;;;;;6.53;4.05;;;16.50;96.40;;;;;;4165230;28;20173;-71
2022/05/04 10:20:40;;;;;;;4.07;3.67;;;16.70;96.90;;;;;;4164854;28;20939;-71
2022/05/04 10:23:02;;;;;;;3.85;3.55;;;17.10;97.50;;;;;;4164710;28;20057;-71
2022/05/04 10:25:06;;;;;;;6.88;2.70;;;17.40;92.80;;;;;;4164926;28;20685;-71
2022/05/04 10:27:22;;;;;;;3.08;2.88;;;17.60;93.20;;;;;;4164826;28;20058;-71
2022/05/04 10:31:56;;;;;;;4.13;3.83;;;17.90;91.60;;;;;;4163623;28;20057;-71
2022/05/04 10:34:02;;;;;;;3.72;3.33;;;17.70;90.70;;;;;;4165046;28;20084;-71
2022/05/04 10:36:27;;;;;;;5.85;3.47;;;17.60;92.00;;;;;;4163718;28;20062;-74
2022/05/04 10:38:28;;;;;;;3.95;3.65;;;17.50;89.10;;;;;;4162497;28;20069;-72
2022/05/04 10:40:37;;;;;;;4.03;3.72;;;17.10;86.80;;;;;;4162565;28;20080;-71
2022/05/04 10:43:08;;;;;;;3.55;3.25;;;16.80;89.60;;;;;;4161344;28;20058;-71
2022/05/04 10:45:13;;;;;;;4.00;3.67;;;16.90;92.40;;;;;;4164764;28;20161;-71
2022/05/04 10:47:19;;;;;;;5.32;4.13;;;17.10;91.60;;;;;;4164697;28;20061;-71
2022/05/04 10:49:38;;;;;;;4.10;3.80;;;17.20;87.90;;;;;;4164525;28;20100;-71
2022/05/04 10:51:42;;;;;;;5.45;3.83;;;17.30;89.00;;;;;;4164210;28;20062;-71
2022/05/04 10:53:47;;;;;;;3.88;3.42;;;17.20;88.30;;;;;;4164470;28;20189;-72
2022/05/04 10:56:01;;;;;;;4.40;4.10;;;17.10;90.40;;;;;;4164482;28;20176;-71
2022/05/04 10:58:32;;;;;;;2.88;2.67;;;17.10;87.10;;;;;;4163667;28;20058;-71
2022/05/04 11:00:34;;;;;;;4.15;3.42;;;17.20;88.50;;;;;;4164222;28;20054;-71
2022/05/04 11:02:41;;;;;;;4.07;3.03;;;17.10;87.00;;;;;;4164186;28;20053;-71
2022/05/04 11:04:43;;;;;;;3.22;3.03;;;17.00;84.00;;;;;;4162403;28;20836;-71
2022/05/04 11:07:00;;;;;;;4.35;2.67;;;17.00;83.20;;;;;;4162449;28;21195;-71
2022/05/04 11:09:06;;;;;;;3.15;2.85;;;16.90;80.10;;;;;;4163471;28;20068;-71
2022/05/04 11:11:08;;;;;;;2.75;2.55;;;16.80;80.60;;;;;;4161857;28;20905;-71
2022/05/04 11:13:09;;;;;;;6.22;2.58;;;16.80;83.00;;;;;;4164311;28;20050;-72
2022/05/04 11:15:12;;;;;;;3.15;2.95;;;16.90;84.50;;;;;;4164356;28;20162;-72